Time;durP1;ratioP1;P1;durP2;ratioP2;P2;SDS_P1;SDS_P2;PMS_P1;PMS_P2;Temp;Humidity;BMP_temperature;BMP_pressure;BME280_temperature;BME280_humidity;BME280_pressure;Samples;Min_cycle;Max_cycle;Signal;HPM_P1;HPM_P2
2021/06/24 00:15:41;;;;;;;13.15;6.78;;;;;;;17.78;74.37;100765.25;21425084;81;99991;-83
2021/06/24 00:45:42;;;;;;;12.17;6.43;;;;;;;17.38;76.34;100759.16;21453462;81;99604;-85
2021/06/24 01:15:43;;;;;;;11.27;6.37;;;;;;;17.08;78.51;100737.63;21431130;81;99785;-84
2021/06/24 01:45:51;;;;;;;10.60;5.35;;;;;;;16.90;79.08;100768.97;21378253;81;99941;-84
2021/06/24 02:15:52;;;;;;;11.85;5.62;;;;;;;16.81;79.29;100813.15;21304819;81;99495;-82
2021/06/24 02:45:54;;;;;;;12.15;5.50;;;;;;;17.01;79.00;100815.53;21399466;81;99621;-83
2021/06/24 03:15:54;;;;;;;13.40;5.47;;;;;;;17.33;78.99;100835.50;21431712;81;99744;-82
2021/06/24 03:45:56;;;;;;;21.35;8.35;;;;;;;17.57;78.61;100776.64;21358177;81;99787;-86
2021/06/24 04:15:58;;;;;;;16.13;8.27;;;;;;;17.26;81.84;100556.00;21307964;81;99698;-86
2021/06/24 04:45:59;;;;;;;17.17;11.33;;;;;;;17.07;85.46;100507.22;21243224;81;100049;-82
2021/06/24 05:16:00;;;;;;;20.63;12.17;;;;;;;17.26;86.68;100486.47;21181784;82;99879;-82
2021/06/24 05:46:01;;;;;;;15.47;11.13;;;;;;;17.83;87.64;100526.73;21339147;81;100078;-81
2021/06/24 06:16:02;;;;;;;19.75;10.43;;;;;;;18.71;85.67;100588.04;21418012;80;100080;-81
2021/06/24 06:46:03;;;;;;;21.50;10.63;;;;;;;19.37;83.82;100631.14;21448650;81;100158;-81
2021/06/24 07:16:05;;;;;;;21.23;11.70;;;;;;;19.95;82.35;100631.61;21435579;80;105249;-81
2021/06/24 07:46:06;;;;;;;18.53;10.83;;;;;;;20.42;81.12;100629.45;21379991;81;100392;-81
2021/06/24 08:16:07;;;;;;;16.73;8.73;;;;;;;21.18;79.52;100627.17;21316585;81;100093;-82
2021/06/24 08:46:08;;;;;;;14.45;8.55;;;;;;;23.09;75.22;100619.86;21316482;81;99891;-82
2021/06/24 09:16:32;;;;;;;14.55;9.20;;;;;;;25.94;69.45;100610.02;21321547;81;99461;-82
2021/06/24 09:46:32;;;;;;;12.33;9.45;;;;;;;27.90;64.06;100596.72;21198942;81;99450;-82
2021/06/24 10:16:34;;;;;;;22.20;12.78;;;;;;;29.84;58.71;100587.77;21060359;82;99807;-82
2021/06/24 10:46:35;;;;;;;16.25;12.63;;;;;;;29.61;53.90;100593.15;21065259;82;111963;-82
2021/06/24 11:16:36;;;;;;;;;;;;;;;29.61;53.90;100593.15;21061335;82;100030;-83
2021/06/24 11:46:37;;;;;;;22.25;13.48;;;;;;;29.53;52.82;100592.80;21054879;81;85788;-83
2021/06/24 12:16:37;;;;;;;19.85;11.15;;;;;;;27.75;54.77;100583.85;21030131;82;100039;-82
2021/06/24 12:46:38;;;;;;;20.23;13.25;;;;;;;27.41;56.09;100583.17;21049828;81;100244;-82
2021/06/24 13:16:44;;;;;;;15.15;10.50;;;;;;;26.46;57.66;100582.59;21064541;82;99873;-83
2021/06/24 13:46:49;;;;;;;17.98;11.57;;;;;;;25.68;58.82;100575.65;21065686;81;100041;-83
2021/06/24 14:16:50;;;;;;;18.23;12.15;;;;;;;25.89;59.07;100563.33;21048629;82;100197;-82
2021/06/24 14:46:52;;;;;;;13.80;10.40;;;;;;;25.28;61.21;100590.02;21036560;82;100035;-80
2021/06/24 15:16:53;;;;;;;15.53;11.97;;;;;;;24.64;62.46;100579.28;21092429;81;100196;-75
2021/06/24 15:46:54;;;;;;;11.40;8.08;;;;;;;24.12;63.56;100564.02;21153669;82;100194;-75
2021/06/24 16:16:55;;;;;;;9.10;5.45;;;;;;;23.77;64.61;100558.45;21241828;81;100049;-76
2021/06/24 16:46:56;;;;;;;9.18;5.97;;;;;;;23.08;66.18;100541.70;21164203;81;99905;-76
2021/06/24 17:16:57;;;;;;;8.33;5.72;;;;;;;22.35;67.98;100551.56;21078098;82;99605;-75
2021/06/24 17:47:00;;;;;;;10.00;6.33;;;;;;;21.61;69.73;100514.64;21075877;82;99421;-75
2021/06/24 18:17:01;;;;;;;10.28;6.70;;;;;;;20.94;71.15;100541.14;21070854;82;99649;-76
2021/06/24 18:47:02;;;;;;;8.43;5.28;;;;;;;20.52;72.34;100573.86;21071708;82;99560;-75
2021/06/24 19:17:04;;;;;;;5.78;3.25;;;;;;;20.11;73.84;100565.98;21065013;80;99879;-74
2021/06/24 19:47:05;;;;;;;10.95;5.70;;;;;;;19.43;74.98;100563.81;21071312;81;99259;-73
2021/06/24 20:17:06;;;;;;;7.77;4.93;;;;;;;19.18;75.46;100636.11;21102249;80;99523;-73
2021/06/24 20:47:07;;;;;;;6.27;3.20;;;;;;;18.79;76.41;100640.25;21075692;81;99677;-74
2021/06/24 21:17:07;;;;;;;6.80;3.85;;;;;;;18.61;76.53;100635.03;21047144;81;99736;-82
2021/06/24 21:47:08;;;;;;;5.65;2.85;;;;;;;18.58;76.40;100637.88;21057174;81;99527;-83
2021/06/24 22:17:09;;;;;;;3.87;2.25;;;;;;;18.49;76.63;100649.58;20999667;81;99784;-83
2021/06/24 22:47:10;;;;;;;6.80;2.60;;;;;;;18.00;76.41;100604.42;21052724;82;99637;-83
2021/06/24 23:17:11;;;;;;;6.05;2.90;;;;;;;17.39;77.13;100566.00;21037169;82;99700;-83
2021/06/24 23:47:12;;;;;;;5.67;3.03;;;;;;;16.61;79.08;100551.47;20902791;82;99638;-82
